Time;durP1;ratioP1;P1;durP2;ratioP2;P2;SDS_P1;SDS_P2;PMS_P1;PMS_P2;Temp;Humidity;BMP_temperature;BMP_pressure;BME280_temperature;BME280_humidity;BME280_pressure;Samples;Min_cycle;Max_cycle;Signal;HPM_P1;HPM_P2
2023/08/16 00:01:56;;;;;;;4.88;2.47;;;22.20;99.90;;;;;;5028220;28;20175;-66
2023/08/16 00:04:22;;;;;;;3.05;2.45;;;22.20;99.90;;;;;;5023638;28;20240;-66
2023/08/16 00:06:48;;;;;;;2.50;2.10;;;22.20;99.90;;;;;;5037283;28;20198;-66
2023/08/16 00:09:16;;;;;;;2.63;2.30;;;22.10;99.90;;;;;;5054259;28;20201;-66
2023/08/16 00:11:43;;;;;;;4.15;2.78;;;22.10;99.90;;;;;;5033991;28;20183;-66
2023/08/16 00:14:11;;;;;;;2.90;2.58;;;22.10;99.90;;;;;;5039334;28;20265;-66
2023/08/16 00:16:40;;;;;;;2.38;2.17;;;22.00;99.90;;;;;;5037986;28;20175;-66
2023/08/16 00:19:06;;;;;;;3.95;2.25;;;22.00;99.90;;;;;;5054427;28;20185;-66
2023/08/16 00:21:31;;;;;;;2.40;2.20;;;21.90;99.90;;;;;;5051409;28;20186;-66
2023/08/16 00:23:59;;;;;;;4.80;2.63;;;21.90;99.90;;;;;;5037011;28;20298;-66
2023/08/16 00:26:25;;;;;;;3.08;2.60;;;21.90;99.90;;;;;;5035505;28;20174;-66
2023/08/16 00:28:50;;;;;;;3.85;2.55;;;21.90;99.90;;;;;;5052613;28;20316;-66
2023/08/16 00:31:18;;;;;;;3.22;2.88;;;21.80;99.90;;;;;;5053864;28;20170;-66
2023/08/16 00:33:44;;;;;;;3.00;2.70;;;21.80;99.90;;;;;;5039627;28;20186;-66
2023/08/16 00:36:12;;;;;;;4.05;2.75;;;21.80;99.90;;;;;;5036122;28;20182;-66
2023/08/16 00:38:42;;;;;;;3.22;2.60;;;21.80;99.90;;;;;;5021563;28;20193;-66
2023/08/16 00:41:12;;;;;;;2.42;2.22;;;21.80;99.90;;;;;;5034019;28;20186;-66
2023/08/16 00:43:38;;;;;;;2.63;2.40;;;21.80;99.90;;;;;;5045816;28;20220;-65
2023/08/16 00:46:09;;;;;;;3.00;2.50;;;21.70;99.90;;;;;;5036723;28;20377;-66
2023/08/16 00:48:38;;;;;;;2.35;2.15;;;21.70;99.90;;;;;;5033017;28;20198;-66
2023/08/16 00:51:06;;;;;;;3.83;2.42;;;21.70;99.90;;;;;;5053410;28;20198;-66
2023/08/16 00:53:34;;;;;;;3.20;2.55;;;21.70;99.90;;;;;;5026920;28;20178;-66
2023/08/16 00:56:03;;;;;;;2.50;2.28;;;21.70;99.90;;;;;;5047314;28;20241;-66
2023/08/16 00:58:34;;;;;;;3.90;2.65;;;21.70;99.90;;;;;;5052438;28;20188;-67
2023/08/16 01:01:02;;;;;;;2.95;2.65;;;21.70;99.90;;;;;;5036702;28;20182;-66
2023/08/16 01:03:27;;;;;;;4.30;2.72;;;21.70;99.90;;;;;;5036350;28;20197;-66
2023/08/16 01:05:58;;;;;;;3.97;2.60;;;21.70;99.90;;;;;;5036413;28;20253;-66
2023/08/16 01:08:23;;;;;;;3.72;2.72;;;21.70;99.90;;;;;;5053037;28;20170;-66
2023/08/16 01:10:58;;;;;;;3.30;3.00;;;21.70;99.90;;;;;;5020562;28;20186;-66
2023/08/16 01:13:31;;;;;;;2.90;2.58;;;21.70;99.90;;;;;;5038961;28;20230;-66
2023/08/16 01:16:07;;;;;;;3.30;3.00;;;21.70;99.90;;;;;;5044129;28;20331;-66
2023/08/16 01:18:41;;;;;;;3.63;3.08;;;21.70;99.90;;;;;;5035952;28;20177;-65
2023/08/16 01:21:12;;;;;;;3.88;3.50;;;21.70;99.90;;;;;;5024552;28;20221;-65
2023/08/16 01:23:43;;;;;;;3.38;3.08;;;21.80;99.90;;;;;;5028528;28;20259;-66
2023/08/16 01:26:39;;;;;;;4.57;3.30;;;21.80;99.90;;;;;;5052676;28;20182;-66
2023/08/16 01:29:09;;;;;;;4.85;3.40;;;21.80;99.90;;;;;;5012298;28;20178;-65
2023/08/16 01:31:37;;;;;;;3.33;2.92;;;21.80;99.90;;;;;;5033209;28;20263;-66
2023/08/16 01:34:02;;;;;;;3.55;3.17;;;21.80;99.90;;;;;;5035769;28;20182;-66
2023/08/16 01:36:28;;;;;;;3.83;3.30;;;21.80;99.90;;;;;;5037045;28;20184;-67
2023/08/16 01:38:55;;;;;;;4.07;3.35;;;21.80;99.90;;;;;;5049089;28;20479;-66
2023/08/16 01:41:40;;;;;;;4.60;3.30;;;21.80;99.90;;;;;;5035855;28;20186;-66
2023/08/16 01:44:08;;;;;;;4.05;3.22;;;21.80;99.90;;;;;;5051560;28;20220;-67
2023/08/16 01:46:37;;;;;;;3.95;3.55;;;21.80;99.90;;;;;;5035539;28;20450;-65
2023/08/16 01:49:04;;;;;;;4.47;3.72;;;21.80;99.90;;;;;;5038611;28;20211;-66
2023/08/16 01:51:32;;;;;;;5.82;3.72;;;21.80;99.90;;;;;;5051879;28;20213;-66
2023/08/16 01:53:58;;;;;;;6.68;3.97;;;21.80;99.90;;;;;;5035776;28;20178;-65
2023/08/16 01:56:24;;;;;;;4.00;3.58;;;21.70;99.90;;;;;;5051916;28;20343;-66
2023/08/16 01:58:50;;;;;;;5.72;4.32;;;21.70;99.90;;;;;;5035366;28;20212;-67
2023/08/16 02:01:15;;;;;;;5.60;4.30;;;21.70;99.90;;;;;;5035905;28;20205;-67
2023/08/16 02:03:43;;;;;;;5.18;4.18;;;21.70;99.90;;;;;;5035318;28;20225;-66
2023/08/16 02:06:11;;;;;;;5.28;4.28;;;21.70;99.90;;;;;;5034826;28;20194;-68
2023/08/16 02:08:37;;;;;;;6.70;4.50;;;21.70;99.90;;;;;;5043329;28;20182;-66
2023/08/16 02:11:05;;;;;;;5.43;4.43;;;21.70;99.90;;;;;;5034991;28;20181;-66
2023/08/16 02:13:30;;;;;;;9.00;5.13;;;21.70;99.90;;;;;;5051590;28;20206;-67
2023/08/16 02:16:00;;;;;;;7.30;4.93;;;21.70;99.90;;;;;;5032233;28;20190;-69
2023/08/16 02:18:27;;;;;;;5.95;5.30;;;21.70;99.90;;;;;;5050654;28;20192;-67
2023/08/16 02:20:53;;;;;;;7.13;5.53;;;21.70;99.90;;;;;;5034900;28;20202;-67
2023/08/16 02:23:20;;;;;;;7.10;5.50;;;21.70;99.90;;;;;;5022944;28;20202;-68
2023/08/16 02:25:49;;;;;;;7.72;5.88;;;21.70;99.90;;;;;;5031407;28;20171;-68
2023/08/16 02:28:16;;;;;;;7.75;5.85;;;21.70;99.90;;;;;;5046979;28;20223;-67
2023/08/16 02:30:42;;;;;;;9.73;5.82;;;21.70;99.90;;;;;;5047925;28;20230;-67
2023/08/16 02:33:08;;;;;;;8.07;6.15;;;21.60;99.90;;;;;;5034590;28;20255;-67
2023/08/16 02:35:34;;;;;;;9.05;5.75;;;21.60;99.90;;;;;;5034227;28;20202;-67
2023/08/16 02:38:00;;;;;;;9.55;6.82;;;21.60;99.90;;;;;;5050482;28;20193;-67
2023/08/16 02:40:25;;;;;;;9.18;6.63;;;21.60;99.90;;;;;;5034551;28;20217;-67
2023/08/16 02:42:51;;;;;;;9.45;7.03;;;21.60;99.90;;;;;;5034576;28;20205;-67
2023/08/16 02:45:17;;;;;;;9.43;7.28;;;21.60;99.90;;;;;;5034495;28;20177;-68
2023/08/16 02:47:45;;;;;;;10.60;7.38;;;21.60;99.90;;;;;;5047014;28;20201;-67
2023/08/16 02:50:17;;;;;;;14.45;9.50;;;21.60;99.90;;;;;;5014996;28;20221;-67
2023/08/16 02:52:42;;;;;;;13.65;9.55;;;21.60;99.90;;;;;;5032967;28;20205;-67
2023/08/16 02:55:08;;;;;;;13.80;9.80;;;21.60;99.90;;;;;;5035003;28;20212;-67
2023/08/16 02:57:34;;;;;;;13.65;8.85;;;21.60;99.90;;;;;;5034951;28;20209;-66
2023/08/16 02:59:59;;;;;;;14.50;8.90;;;21.60;99.90;;;;;;5034172;28;20186;-67
2023/08/16 03:02:32;;;;;;;11.98;8.07;;;21.60;99.90;;;;;;5051095;28;20185;-67
2023/08/16 03:04:58;;;;;;;15.40;8.98;;;21.60;99.90;;;;;;5034431;28;20189;-66
2023/08/16 03:07:23;;;;;;;16.67;9.10;;;21.70;99.90;;;;;;5030684;28;20175;-67
2023/08/16 03:09:51;;;;;;;15.98;9.70;;;21.70;99.90;;;;;;5023371;28;20216;-67
2023/08/16 03:12:19;;;;;;;15.27;9.27;;;21.70;99.90;;;;;;5031484;28;20170;-67
2023/08/16 03:14:44;;;;;;;19.10;10.05;;;21.80;99.90;;;;;;5034539;28;20181;-67
2023/08/16 03:17:10;;;;;;;14.85;9.63;;;21.80;99.90;;;;;;5032472;28;20170;-67
2023/08/16 03:19:38;;;;;;;20.63;10.68;;;21.80;99.90;;;;;;5050422;28;20174;-67
2023/08/16 03:22:04;;;;;;;19.20;10.88;;;21.80;99.90;;;;;;5050040;28;20198;-67
2023/08/16 03:24:29;;;;;;;21.35;11.10;;;21.80;99.90;;;;;;5046117;28;20205;-67
2023/08/16 03:26:57;;;;;;;23.17;11.75;;;21.80;99.90;;;;;;5033387;28;20170;-67
2023/08/16 03:29:23;;;;;;;22.05;12.45;;;21.80;99.90;;;;;;5033765;28;20194;-67
2023/08/16 03:31:48;;;;;;;25.40;10.43;;;21.80;99.90;;;;;;5028741;28;20181;-67
2023/08/16 03:34:16;;;;;;;21.35;10.40;;;21.80;99.90;;;;;;5037046;28;20174;-67
2023/08/16 03:36:42;;;;;;;19.38;10.65;;;21.80;99.90;;;;;;5049151;28;20199;-67
2023/08/16 03:39:10;;;;;;;21.00;11.57;;;21.80;99.90;;;;;;5034312;28;20243;-68
2023/08/16 03:41:37;;;;;;;18.55;10.70;;;21.80;99.90;;;;;;5026818;28;20182;-67
2023/08/16 03:44:04;;;;;;;18.02;10.65;;;21.80;99.90;;;;;;5033430;28;20256;-67
2023/08/16 03:46:29;;;;;;;20.75;11.80;;;21.80;99.90;;;;;;5032456;28;20170;-67
2023/08/16 03:48:58;;;;;;;22.02;10.80;;;21.80;99.90;;;;;;5040521;28;20317;-67
2023/08/16 03:51:23;;;;;;;21.23;11.23;;;21.90;99.90;;;;;;5032283;28;20335;-67
2023/08/16 03:53:49;;;;;;;17.10;10.15;;;21.90;99.90;;;;;;5061660;28;20239;-67
2023/08/16 03:56:16;;;;;;;21.45;11.07;;;21.90;99.90;;;;;;5048754;28;20437;-67
2023/08/16 03:58:42;;;;;;;17.25;10.45;;;21.90;99.90;;;;;;5032816;28;20205;-67
2023/08/16 04:01:12;;;;;;;18.55;10.50;;;21.90;99.90;;;;;;5049621;28;20178;-67
2023/08/16 04:03:38;;;;;;;17.63;10.15;;;21.90;99.90;;;;;;5049457;28;20360;-68
2023/08/16 04:06:11;;;;;;;22.10;11.30;;;21.90;99.90;;;;;;5033752;28;20229;-67
2023/08/16 04:08:42;;;;;;;18.92;10.52;;;21.90;99.90;;;;;;5037952;28;20166;-67
2023/08/16 04:11:10;;;;;;;18.65;10.57;;;22.00;99.90;;;;;;5040100;28;20233;-67
2023/08/16 04:13:36;;;;;;;20.65;10.57;;;22.00;99.90;;;;;;5033235;28;20206;-67
2023/08/16 04:16:01;;;;;;;20.20;10.63;;;22.00;99.90;;;;;;5022923;28;20198;-67
2023/08/16 04:18:28;;;;;;;20.83;11.10;;;22.00;99.90;;;;;;5030737;28;20216;-67
2023/08/16 04:20:56;;;;;;;26.08;12.30;;;22.00;99.90;;;;;;5013960;28;20178;-67
2023/08/16 04:23:23;;;;;;;21.08;11.02;;;22.00;99.90;;;;;;5032226;28;20197;-67
2023/08/16 04:25:48;;;;;;;23.85;12.32;;;21.90;99.90;;;;;;5033755;28;20182;-67
2023/08/16 04:28:14;;;;;;;20.77;11.88;;;21.90;99.90;;;;;;5047217;28;20175;-67
2023/08/16 04:30:43;;;;;;;19.63;11.48;;;21.90;99.90;;;;;;5036714;28;20261;-68
2023/08/16 04:33:08;;;;;;;19.55;10.52;;;21.90;99.90;;;;;;5036856;28;20190;-67
2023/08/16 04:35:38;;;;;;;17.70;9.65;;;21.90;99.90;;;;;;5053851;28;20182;-67
2023/08/16 04:38:04;;;;;;;15.77;10.52;;;21.90;99.90;;;;;;5045418;28;20269;-67
2023/08/16 04:40:32;;;;;;;16.60;8.77;;;21.90;99.90;;;;;;5037184;28;20232;-66
2023/08/16 04:42:57;;;;;;;16.23;9.25;;;21.90;99.90;;;;;;5037020;28;20201;-69
2023/08/16 04:45:25;;;;;;;13.75;8.32;;;21.90;99.90;;;;;;5034645;28;20320;-68
2023/08/16 04:47:51;;;;;;;13.40;8.40;;;21.90;99.90;;;;;;5058667;28;20260;-68
2023/08/16 04:50:16;;;;;;;17.05;9.80;;;21.90;99.90;;;;;;5051253;28;20273;-69
2023/08/16 04:52:47;;;;;;;17.85;9.93;;;21.90;99.90;;;;;;5028834;28;20179;-69
2023/08/16 04:55:17;;;;;;;15.52;9.00;;;21.90;99.90;;;;;;5050785;28;20258;-68
2023/08/16 04:57:43;;;;;;;16.83;9.02;;;21.90;99.90;;;;;;5033776;28;20264;-69
2023/08/16 05:00:10;;;;;;;13.77;8.90;;;21.90;99.90;;;;;;5036295;28;20182;-69
2023/08/16 05:02:35;;;;;;;25.50;10.90;;;21.90;99.90;;;;;;5035460;28;20243;-69
2023/08/16 05:05:01;;;;;;;27.35;12.07;;;21.90;99.90;;;;;;5032705;28;20167;-69
2023/08/16 05:07:29;;;;;;;27.08;11.63;;;21.80;99.90;;;;;;5022646;28;20178;-69
2023/08/16 05:09:57;;;;;;;29.27;12.25;;;21.80;99.90;;;;;;5035140;28;20252;-67
2023/08/16 05:12:22;;;;;;;26.58;12.77;;;21.80;99.90;;;;;;5036383;28;20174;-69
2023/08/16 05:14:52;;;;;;;25.50;11.82;;;21.80;99.90;;;;;;5035940;28;20536;-68
2023/08/16 05:17:18;;;;;;;28.63;12.75;;;21.80;99.90;;;;;;5035115;28;20198;-68
2023/08/16 05:19:44;;;;;;;31.15;12.80;;;21.80;99.90;;;;;;5035367;28;20178;-68
2023/08/16 05:22:09;;;;;;;35.05;14.18;;;21.80;99.90;;;;;;5029403;28;20221;-69
2023/08/16 05:24:35;;;;;;;30.83;12.73;;;21.80;99.90;;;;;;5042343;28;20206;-68
2023/08/16 05:27:01;;;;;;;31.00;12.68;;;21.80;99.90;;;;;;5031948;28;20178;-68
2023/08/16 05:29:26;;;;;;;33.85;14.05;;;21.80;99.90;;;;;;5036489;28;20193;-68
2023/08/16 05:31:52;;;;;;;34.33;14.43;;;21.80;99.90;;;;;;5036033;28;20180;-68
2023/08/16 05:34:19;;;;;;;30.35;13.25;;;21.80;99.90;;;;;;5041010;28;20181;-69
2023/08/16 05:36:50;;;;;;;25.88;11.98;;;21.80;99.90;;;;;;5052598;28;20208;-67
2023/08/16 05:39:16;;;;;;;25.88;12.43;;;21.80;99.90;;;;;;5052037;28;20206;-67
2023/08/16 05:41:41;;;;;;;24.08;11.75;;;21.90;99.90;;;;;;5035356;28;20201;-67
2023/08/16 05:44:07;;;;;;;26.45;12.02;;;21.90;99.90;;;;;;5051947;28;20205;-67
2023/08/16 05:46:33;;;;;;;26.05;12.38;;;21.90;99.90;;;;;;5035935;28;20264;-67
2023/08/16 05:49:00;;;;;;;26.17;12.90;;;21.90;99.90;;;;;;5035634;28;20193;-67
2023/08/16 05:51:29;;;;;;;32.78;13.32;;;21.90;99.90;;;;;;5035491;28;20263;-67
2023/08/16 05:53:54;;;;;;;33.13;13.63;;;21.90;99.90;;;;;;5035841;28;20265;-67
2023/08/16 05:56:22;;;;;;;39.75;15.18;;;21.80;99.90;;;;;;5035595;28;20264;-67
2023/08/16 05:58:48;;;;;;;47.00;16.58;;;21.80;99.90;;;;;;5035471;28;20232;-66
2023/08/16 06:01:13;;;;;;;54.50;18.33;;;21.80;99.90;;;;;;5035499;28;20220;-67
2023/08/16 06:03:41;;;;;;;44.83;16.50;;;21.70;99.90;;;;;;5036155;28;20212;-67
2023/08/16 06:06:09;;;;;;;44.88;15.32;;;21.70;99.90;;;;;;5032210;28;20206;-68
2023/08/16 06:08:34;;;;;;;35.70;14.20;;;21.60;99.90;;;;;;5033096;28;20175;-68
2023/08/16 06:11:08;;;;;;;50.10;17.63;;;21.60;99.90;;;;;;5035277;28;20192;-68
2023/08/16 06:13:34;;;;;;;40.47;15.73;;;21.60;99.90;;;;;;5035002;28;20177;-68
2023/08/16 06:16:02;;;;;;;44.00;15.98;;;21.50;99.90;;;;;;5035159;28;20422;-68
2023/08/16 06:18:27;;;;;;;41.78;14.75;;;21.50;99.90;;;;;;5041485;28;20213;-68
2023/08/16 06:20:55;;;;;;;36.63;14.23;;;21.50;99.90;;;;;;5034091;28;20182;-66
2023/08/16 06:23:21;;;;;;;38.38;15.52;;;21.50;99.90;;;;;;5051022;28;20194;-67
2023/08/16 06:25:51;;;;;;;38.92;14.90;;;21.50;99.90;;;;;;5034827;28;20212;-66
2023/08/16 06:28:19;;;;;;;38.00;14.68;;;21.40;99.90;;;;;;5034839;28;20204;-68
2023/08/16 06:30:44;;;;;;;33.75;13.80;;;21.40;99.90;;;;;;5051679;28;20196;-68
2023/08/16 06:33:12;;;;;;;36.28;14.02;;;21.50;99.90;;;;;;5034567;28;20221;-68
2023/08/16 06:35:38;;;;;;;42.90;15.27;;;21.50;99.90;;;;;;5050946;28;20192;-67
2023/08/16 06:38:03;;;;;;;40.22;16.00;;;21.60;99.90;;;;;;5026657;28;20179;-67
2023/08/16 06:40:29;;;;;;;39.47;16.42;;;21.60;99.90;;;;;;5017175;28;20240;-67
2023/08/16 06:42:54;;;;;;;39.20;16.55;;;21.70;99.90;;;;;;5034464;28;20205;-67
2023/08/16 06:45:20;;;;;;;39.47;16.65;;;21.70;99.90;;;;;;5034481;28;20175;-67
2023/08/16 06:47:48;;;;;;;30.85;15.40;;;21.80;99.90;;;;;;5168099;22;20304;-67
2023/08/16 06:50:14;;;;;;;30.02;15.05;;;21.80;99.90;;;;;;5038042;28;20196;-67
2023/08/16 06:52:42;;;;;;;27.33;14.35;;;21.90;99.90;;;;;;5037274;28;20330;-67
2023/08/16 06:55:08;;;;;;;30.80;15.88;;;22.00;99.90;;;;;;5032037;28;20173;-67
2023/08/16 06:57:36;;;;;;;35.70;15.70;;;22.00;99.90;;;;;;5037873;28;20487;-68
2023/08/16 07:00:03;;;;;;;30.33;15.27;;;22.10;99.90;;;;;;5037027;28;20244;-67
2023/08/16 07:02:31;;;;;;;29.63;15.52;;;22.10;99.90;;;;;;5034563;28;20243;-68
2023/08/16 07:04:57;;;;;;;27.23;14.90;;;22.20;99.90;;;;;;5039986;28;20252;-67
2023/08/16 07:07:25;;;;;;;35.05;15.52;;;22.20;99.90;;;;;;5037804;28;20205;-66
2023/08/16 07:09:50;;;;;;;34.33;17.00;;;22.30;99.90;;;;;;5034357;28;20241;-67
2023/08/16 07:12:18;;;;;;;32.45;16.83;;;22.30;99.90;;;;;;5040479;28;20291;-67
2023/08/16 07:14:48;;;;;;;31.25;16.98;;;22.30;99.90;;;;;;5055105;28;20192;-67
2023/08/16 07:17:16;;;;;;;35.05;17.23;;;22.30;99.90;;;;;;5040581;28;20280;-67
2023/08/16 07:19:42;;;;;;;29.08;16.00;;;22.30;99.90;;;;;;5037206;28;20189;-67
2023/08/16 07:22:10;;;;;;;26.90;14.90;;;22.40;99.90;;;;;;5034186;28;20194;-67
2023/08/16 07:24:36;;;;;;;30.08;15.25;;;22.40;99.90;;;;;;5037089;28;20279;-67
2023/08/16 07:27:01;;;;;;;31.67;15.30;;;22.50;99.90;;;;;;5036887;28;20266;-67
2023/08/16 07:29:29;;;;;;;30.10;15.05;;;22.50;99.90;;;;;;5033707;28;20248;-67
2023/08/16 07:31:57;;;;;;;34.17;18.48;;;22.50;99.90;;;;;;5037113;28;20189;-67
2023/08/16 07:34:25;;;;;;;33.25;18.50;;;22.60;99.90;;;;;;5036780;28;20185;-67
2023/08/16 07:36:51;;;;;;;26.95;17.02;;;22.60;99.90;;;;;;5036231;28;20191;-67
2023/08/16 07:39:16;;;;;;;28.33;16.15;;;22.60;99.90;;;;;;5037141;28;20483;-67
2023/08/16 07:41:44;;;;;;;31.60;16.25;;;22.70;99.90;;;;;;5036262;28;20177;-67
2023/08/16 07:44:13;;;;;;;33.97;18.13;;;22.70;99.90;;;;;;5037419;28;20205;-65
2023/08/16 07:46:40;;;;;;;31.05;19.02;;;22.70;99.90;;;;;;5037019;28;20173;-65
2023/08/16 07:49:09;;;;;;;31.98;17.88;;;22.80;99.90;;;;;;5052314;28;20185;-65
2023/08/16 07:51:34;;;;;;;28.67;18.10;;;22.80;99.90;;;;;;5036897;28;20184;-66
2023/08/16 07:54:00;;;;;;;31.67;18.42;;;22.80;99.90;;;;;;5019877;28;20245;-65
2023/08/16 07:56:26;;;;;;;32.80;19.30;;;22.80;99.90;;;;;;5031949;28;20205;-66
2023/08/16 07:58:51;;;;;;;30.70;17.55;;;22.90;99.90;;;;;;5037279;28;20211;-66
2023/08/16 08:01:17;;;;;;;30.77;18.10;;;22.90;99.90;;;;;;5034427;28;20185;-66
2023/08/16 08:03:43;;;;;;;30.42;16.90;;;22.90;99.90;;;;;;5044183;28;20240;-66
2023/08/16 08:06:09;;;;;;;29.35;18.30;;;23.00;99.90;;;;;;5040624;28;20230;-66
2023/08/16 08:08:35;;;;;;;30.65;16.63;;;23.00;99.90;;;;;;5041227;28;20424;-67
2023/08/16 08:11:01;;;;;;;33.63;18.63;;;23.00;99.90;;;;;;5040684;28;20221;-67
2023/08/16 08:13:26;;;;;;;30.17;17.15;;;23.10;99.90;;;;;;5040977;28;20182;-66
2023/08/16 08:15:53;;;;;;;28.00;16.88;;;23.10;99.90;;;;;;5037635;28;20427;-67
2023/08/16 08:18:19;;;;;;;31.77;17.15;;;23.20;99.90;;;;;;5032831;28;20223;-66
2023/08/16 08:20:44;;;;;;;30.13;16.83;;;23.20;99.90;;;;;;5040860;28;20182;-67
2023/08/16 08:23:15;;;;;;;28.63;15.65;;;23.30;99.90;;;;;;5040158;28;20193;-66
2023/08/16 08:25:42;;;;;;;27.40;15.63;;;23.30;99.90;;;;;;5040675;28;20267;-66
2023/08/16 08:28:10;;;;;;;27.42;15.50;;;23.40;99.90;;;;;;5040533;28;20177;-66
2023/08/16 08:30:36;;;;;;;27.83;15.25;;;23.40;99.90;;;;;;5040502;28;20177;-65
2023/08/16 08:33:02;;;;;;;26.65;14.55;;;23.50;99.90;;;;;;5040088;28;20192;-67
2023/08/16 08:35:28;;;;;;;27.98;15.75;;;23.50;99.90;;;;;;5036352;28;20200;-66
2023/08/16 08:37:53;;;;;;;31.98;15.60;;;23.60;99.90;;;;;;5039058;28;20186;-66
2023/08/16 08:40:24;;;;;;;28.77;16.73;;;23.60;99.90;;;;;;5036902;28;20231;-66
2023/08/16 08:42:50;;;;;;;27.92;15.38;;;23.70;99.90;;;;;;5048351;28;20231;-67
2023/08/16 08:45:17;;;;;;;28.77;15.82;;;23.70;99.90;;;;;;5039903;28;20193;-66
2023/08/16 08:47:44;;;;;;;23.08;14.20;;;23.70;99.90;;;;;;5032206;28;20213;-66
2023/08/16 08:50:10;;;;;;;29.02;15.98;;;23.80;99.90;;;;;;5040414;28;20205;-66
2023/08/16 08:52:35;;;;;;;24.73;14.55;;;23.80;99.90;;;;;;5040157;28;20212;-66
2023/08/16 08:55:03;;;;;;;25.45;15.35;;;23.90;99.90;;;;;;5040319;28;20177;-66
2023/08/16 08:57:30;;;;;;;23.95;15.07;;;23.90;99.90;;;;;;5039903;28;20173;-66
2023/08/16 09:00:00;;;;;;;21.35;14.38;;;24.00;99.90;;;;;;5040078;28;20193;-66
2023/08/16 09:02:34;;;;;;;21.02;13.77;;;24.00;99.90;;;;;;5039582;28;20185;-67
2023/08/16 09:05:05;;;;;;;23.08;12.60;;;24.10;99.90;;;;;;5056044;28;20181;-66
2023/08/16 09:07:34;;;;;;;19.90;12.32;;;24.10;99.90;;;;;;5035427;28;20197;-67
2023/08/16 09:10:02;;;;;;;21.00;13.73;;;24.20;99.90;;;;;;5020369;28;20209;-66
2023/08/16 09:12:30;;;;;;;18.58;12.15;;;24.20;99.90;;;;;;5026934;28;20249;-66
2023/08/16 09:14:55;;;;;;;21.50;13.35;;;24.20;99.90;;;;;;5038065;28;20181;-67
2023/08/16 09:17:23;;;;;;;19.77;13.02;;;24.20;99.90;;;;;;5057297;28;20183;-66
2023/08/16 09:19:51;;;;;;;24.10;13.73;;;24.20;99.90;;;;;;5043305;28;20196;-66
2023/08/16 09:22:17;;;;;;;17.83;12.15;;;24.30;99.90;;;;;;5039775;28;20170;-66
2023/08/16 09:24:43;;;;;;;17.58;11.55;;;24.30;99.90;;;;;;5031461;28;20198;-66
2023/08/16 09:27:14;;;;;;;19.27;12.82;;;24.20;99.90;;;;;;5036303;28;20448;-66
2023/08/16 09:29:42;;;;;;;19.05;12.13;;;24.30;99.90;;;;;;5035561;28;20259;-67
2023/08/16 09:32:11;;;;;;;20.88;12.60;;;24.30;99.90;;;;;;5054174;28;20177;-66
2023/08/16 09:34:39;;;;;;;23.48;13.80;;;24.30;99.90;;;;;;5036070;28;20209;-66
2023/08/16 09:37:07;;;;;;;23.10;13.93;;;24.30;99.90;;;;;;5039345;28;20212;-66
2023/08/16 09:39:33;;;;;;;23.73;13.23;;;24.20;99.90;;;;;;5040009;28;20204;-66
2023/08/16 09:42:01;;;;;;;24.17;13.60;;;24.20;99.90;;;;;;5055207;28;20205;-66
2023/08/16 09:44:31;;;;;;;25.13;13.95;;;24.10;99.90;;;;;;5039008;28;20204;-65
2023/08/16 09:47:10;;;;;;;22.70;12.68;;;24.10;99.90;;;;;;5038540;28;20180;-66
2023/08/16 09:49:38;;;;;;;22.48;13.40;;;24.10;99.90;;;;;;5039358;28;20214;-66
2023/08/16 09:52:13;;;;;;;23.92;14.38;;;24.00;99.90;;;;;;5038740;28;20256;-66
2023/08/16 09:54:41;;;;;;;23.70;13.23;;;24.00;99.90;;;;;;5038702;28;20169;-66
2023/08/16 09:57:07;;;;;;;21.33;12.73;;;24.00;99.90;;;;;;5036258;28;20177;-67
2023/08/16 09:59:33;;;;;;;17.77;11.60;;;24.00;99.90;;;;;;5032627;28;20173;-66
2023/08/16 10:02:05;;;;;;;19.83;12.70;;;24.00;99.90;;;;;;5037897;28;20201;-67
2023/08/16 10:04:32;;;;;;;20.55;12.52;;;24.00;99.90;;;;;;5039058;28;20207;-65
2023/08/16 10:06:57;;;;;;;18.10;11.70;;;24.00;99.90;;;;;;5038531;28;20260;-66
2023/08/16 10:09:26;;;;;;;20.55;13.13;;;24.10;99.90;;;;;;5048368;28;20297;-66
2023/08/16 10:11:53;;;;;;;19.55;12.25;;;24.10;99.90;;;;;;5039124;28;20208;-67
2023/08/16 10:14:19;;;;;;;20.10;12.77;;;24.20;99.90;;;;;;5031784;28;20177;-66
2023/08/16 10:16:48;;;;;;;19.98;12.63;;;24.20;99.90;;;;;;5038076;28;20284;-66
2023/08/16 10:19:18;;;;;;;22.33;13.40;;;24.30;99.90;;;;;;5038802;28;20184;-66
2023/08/16 10:21:46;;;;;;;21.90;13.07;;;24.30;99.90;;;;;;5038315;28;20188;-66
2023/08/16 10:24:19;;;;;;;21.90;12.70;;;24.30;99.90;;;;;;5038441;28;20217;-66
2023/08/16 10:26:49;;;;;;;27.25;14.65;;;24.20;99.90;;;;;;5020375;28;20174;-66
2023/08/16 10:29:21;;;;;;;24.33;14.80;;;24.20;99.90;;;;;;5038388;28;20222;-65
2023/08/16 10:31:48;;;;;;;25.67;14.13;;;24.20;99.90;;;;;;5038549;28;20174;-65
2023/08/16 10:34:15;;;;;;;28.40;14.30;;;24.10;99.90;;;;;;5037963;28;20188;-67
2023/08/16 10:36:44;;;;;;;29.23;15.05;;;24.10;99.90;;;;;;5038251;28;20192;-66
2023/08/16 10:39:23;;;;;;;25.88;14.50;;;24.00;99.90;;;;;;5037985;28;20173;-66
2023/08/16 10:41:53;;;;;;;28.48;13.98;;;23.90;99.90;;;;;;5035052;28;20236;-67
2023/08/16 10:44:25;;;;;;;27.50;15.40;;;23.90;99.90;;;;;;5053167;28;20219;-67
2023/08/16 10:46:51;;;;;;;27.10;14.55;;;23.80;99.90;;;;;;5037574;28;20170;-67
2023/08/16 10:49:19;;;;;;;31.20;15.95;;;23.70;99.90;;;;;;5038003;28;20200;-66
2023/08/16 10:51:54;;;;;;;23.75;14.18;;;23.70;99.90;;;;;;5037625;28;20192;-65
2023/08/16 10:54:31;;;;;;;26.10;14.55;;;23.60;99.90;;;;;;5038040;28;20527;-66
2023/08/16 10:57:04;;;;;;;23.10;13.82;;;23.60;99.90;;;;;;5037207;28;20177;-66
2023/08/16 10:59:41;;;;;;;25.85;14.13;;;23.60;99.90;;;;;;5037753;28;20212;-66
2023/08/16 11:02:15;;;;;;;27.48;15.13;;;23.50;99.90;;;;;;5033880;28;20217;-66
2023/08/16 11:04:42;;;;;;;26.65;14.68;;;23.60;99.90;;;;;;5052275;28;20212;-66
2023/08/16 11:07:14;;;;;;;23.73;13.48;;;23.60;99.90;;;;;;5037397;28;20567;-65
2023/08/16 11:09:40;;;;;;;28.42;14.02;;;23.70;99.90;;;;;;5034250;28;20170;-65
2023/08/16 11:12:06;;;;;;;21.35;13.80;;;23.70;99.90;;;;;;5053342;28;20216;-65
2023/08/16 11:14:35;;;;;;;24.13;13.95;;;23.90;99.90;;;;;;5038021;28;20173;-67
2023/08/16 11:17:03;;;;;;;24.23;14.18;;;24.00;99.90;;;;;;5037837;28;20268;-65
2023/08/16 11:19:29;;;;;;;25.17;15.07;;;24.10;99.90;;;;;;5037661;28;20201;-68
2023/08/16 11:22:01;;;;;;;21.73;13.55;;;24.20;99.90;;;;;;5039866;28;20517;-66
2023/08/16 11:24:27;;;;;;;21.55;13.35;;;24.30;99.90;;;;;;5040786;28;20193;-66
2023/08/16 11:26:53;;;;;;;20.13;12.85;;;24.40;99.90;;;;;;5053931;28;20239;-65
2023/08/16 11:29:21;;;;;;;21.30;13.38;;;24.70;99.90;;;;;;5034726;28;20177;-65
2023/08/16 11:31:46;;;;;;;22.23;13.55;;;24.90;99.90;;;;;;5037396;28;20169;-66
2023/08/16 11:34:13;;;;;;;25.67;15.15;;;25.20;99.90;;;;;;5037980;28;20201;-66
2023/08/16 11:36:41;;;;;;;24.38;14.10;;;25.50;99.90;;;;;;5037128;28;20392;-65
2023/08/16 11:39:08;;;;;;;20.23;13.27;;;25.80;99.90;;;;;;5036057;28;20193;-66
2023/08/16 11:41:35;;;;;;;26.48;15.23;;;26.10;99.90;;;;;;5037016;28;20170;-65
2023/08/16 11:44:00;;;;;;;22.27;13.60;;;26.20;99.90;;;;;;5037042;28;20228;-65
2023/08/16 11:46:26;;;;;;;22.00;13.73;;;26.30;99.90;;;;;;5037188;28;20280;-66
2023/08/16 11:48:52;;;;;;;22.55;13.05;;;26.50;99.90;;;;;;5049144;28;20204;-66
2023/08/16 11:51:21;;;;;;;19.13;12.70;;;26.70;99.90;;;;;;5044969;28;20355;-66
2023/08/16 11:53:46;;;;;;;20.30;13.23;;;26.90;99.90;;;;;;5034125;28;20186;-66
2023/08/16 11:56:12;;;;;;;22.25;14.95;;;27.20;99.90;;;;;;5051307;28;20272;-66
2023/08/16 11:58:46;;;;;;;18.85;12.52;;;27.30;99.90;;;;;;5049845;28;20204;-65
2023/08/16 12:01:14;;;;;;;18.05;12.25;;;27.50;99.90;;;;;;5053611;28;20188;-66
2023/08/16 12:03:46;;;;;;;18.65;12.43;;;27.60;99.90;;;;;;5036838;28;20227;-66
2023/08/16 12:06:13;;;;;;;14.32;10.93;;;27.70;99.90;;;;;;5027525;28;20283;-65
2023/08/16 12:08:48;;;;;;;18.08;10.20;;;27.90;99.90;;;;;;5034605;28;20185;-66
2023/08/16 12:11:35;;;;;;;14.95;9.65;;;28.10;99.90;;;;;;5043175;28;20477;-65
2023/08/16 12:14:06;;;;;;;11.15;8.02;;;28.30;99.90;;;;;;5033535;28;20184;-65
2023/08/16 12:16:31;;;;;;;11.77;8.32;;;28.50;99.90;;;;;;5036753;28;20185;-67
2023/08/16 12:18:58;;;;;;;10.73;7.85;;;28.70;99.90;;;;;;5037124;28;20205;-66
2023/08/16 12:21:24;;;;;;;10.95;8.40;;;28.80;99.90;;;;;;5036304;28;20185;-66
2023/08/16 12:23:50;;;;;;;13.55;7.82;;;28.90;99.90;;;;;;5036432;28;20204;-66
2023/08/16 12:26:18;;;;;;;14.25;7.43;;;28.90;99.90;;;;;;5037039;28;20161;-65
2023/08/16 12:28:44;;;;;;;10.73;7.78;;;28.80;99.90;;;;;;5036745;28;20212;-66
2023/08/16 12:31:11;;;;;;;12.07;7.40;;;28.80;99.90;;;;;;5036370;28;20224;-66
2023/08/16 12:33:41;;;;;;;9.65;7.43;;;28.60;99.90;;;;;;5033076;28;20210;-66
2023/08/16 12:36:07;;;;;;;12.13;8.10;;;28.50;99.90;;;;;;5036818;28;20192;-65